Time;durP1;ratioP1;P1;durP2;ratioP2;P2;SDS_P1;SDS_P2;PMS_P1;PMS_P2;Temp;Humidity;BMP_temperature;BMP_pressure;BME280_temperature;BME280_humidity;BME280_pressure;Samples;Min_cycle;Max_cycle;Signal;HPM_P1;HPM_P2
2021/11/14 00:00:45;;;;;;;95.60;46.40;;;5.00;99.90;;;;;;5019345;28;20232;-83
2021/11/14 00:03:14;;;;;;;106.22;50.97;;;5.00;99.90;;;;;;5017854;28;20201;-86
2021/11/14 00:05:42;;;;;;;86.25;49.85;;;4.90;99.90;;;;;;5014369;28;20275;-86
2021/11/14 00:08:12;;;;;;;98.53;47.63;;;4.90;99.90;;;;;;5019639;28;20206;-85
2021/11/14 00:10:42;;;;;;;79.65;44.05;;;4.90;99.90;;;;;;5022289;28;20211;-84
2021/11/14 00:13:10;;;;;;;102.10;48.40;;;4.80;99.90;;;;;;5022377;28;20217;-84
2021/11/14 00:15:38;;;;;;;96.82;47.92;;;4.70;99.90;;;;;;5022963;28;20487;-84
2021/11/14 00:18:06;;;;;;;85.03;47.92;;;4.70;99.90;;;;;;5022699;28;20227;-83
2021/11/14 00:20:35;;;;;;;80.30;44.20;;;4.50;99.90;;;;;;5002461;28;20232;-84
2021/11/14 00:23:03;;;;;;;95.43;44.70;;;4.30;99.90;;;;;;5017695;28;20419;-85
2021/11/14 00:25:33;;;;;;;101.05;46.90;;;4.40;99.90;;;;;;5020973;28;20240;-84
2021/11/14 00:28:04;;;;;;;103.82;49.40;;;4.30;99.90;;;;;;5016987;28;20257;-84
2021/11/14 00:30:33;;;;;;;88.20;45.45;;;4.40;99.90;;;;;;5021025;28;20213;-84
2021/11/14 00:33:01;;;;;;;90.97;44.85;;;4.40;99.90;;;;;;5020952;28;20190;-83
2021/11/14 00:35:29;;;;;;;83.28;41.85;;;4.40;99.90;;;;;;5020394;28;20211;-83
2021/11/14 00:37:57;;;;;;;92.25;50.15;;;4.30;99.90;;;;;;5020527;28;20225;-84
2021/11/14 00:40:31;;;;;;;71.40;43.03;;;4.00;99.90;;;;;;5003555;28;20211;-83
2021/11/14 00:43:00;;;;;;;88.78;46.83;;;4.00;99.90;;;;;;5002824;28;20237;-83
2021/11/14 00:45:30;;;;;;;92.72;45.80;;;4.10;99.90;;;;;;5020181;28;20198;-83
2021/11/14 00:48:00;;;;;;;95.07;43.10;;;4.00;99.90;;;;;;5020357;28;20217;-84
2021/11/14 00:50:28;;;;;;;97.28;48.08;;;3.90;99.90;;;;;;5013976;28;20225;-83
2021/11/14 00:52:58;;;;;;;82.60;49.22;;;4.00;99.90;;;;;;5003494;28;20206;-84
2021/11/14 00:55:28;;;;;;;94.00;50.00;;;4.00;99.90;;;;;;5003066;28;20222;-85
2021/11/14 00:57:56;;;;;;;88.43;50.20;;;4.00;99.90;;;;;;5017484;28;20264;-85
2021/11/14 01:00:26;;;;;;;93.00;48.08;;;3.60;99.90;;;;;;5012893;28;20205;-84
2021/11/14 01:02:54;;;;;;;104.95;50.20;;;3.80;99.90;;;;;;5021169;28;20387;-84
2021/11/14 01:05:23;;;;;;;89.53;45.88;;;3.90;99.90;;;;;;4999071;28;20264;-84
2021/11/14 01:07:52;;;;;;;72.60;46.70;;;3.80;99.90;;;;;;5020018;28;20270;-84
2021/11/14 01:10:23;;;;;;;86.68;45.22;;;3.80;99.90;;;;;;5020110;28;20419;-83
2021/11/14 01:12:51;;;;;;;100.20;50.22;;;3.80;99.90;;;;;;5019582;28;20236;-83
2021/11/14 01:15:20;;;;;;;95.43;48.88;;;3.90;99.90;;;;;;5020012;28;20264;-83
2021/11/14 01:17:49;;;;;;;108.70;50.80;;;3.90;99.90;;;;;;5020745;28;20220;-84
2021/11/14 01:20:21;;;;;;;94.68;47.45;;;3.90;99.90;;;;;;5006173;28;20197;-84
2021/11/14 01:22:51;;;;;;;94.15;49.17;;;3.90;99.90;;;;;;5023027;28;20244;-83
2021/11/14 01:25:19;;;;;;;89.82;49.78;;;3.90;99.90;;;;;;5023315;28;20273;-83
2021/11/14 01:27:47;;;;;;;92.97;55.22;;;3.70;99.90;;;;;;5022775;28;20431;-83
2021/11/14 01:30:18;;;;;;;93.75;53.20;;;3.50;99.90;;;;;;5022987;28;20247;-84
2021/11/14 01:32:45;;;;;;;93.60;49.22;;;3.50;99.90;;;;;;5006061;28;20216;-84
2021/11/14 01:35:13;;;;;;;96.20;52.58;;;3.50;99.90;;;;;;5022953;28;20205;-84
2021/11/14 01:37:42;;;;;;;99.60;51.72;;;3.50;99.90;;;;;;5023134;28;20224;-83
2021/11/14 01:40:12;;;;;;;95.00;51.17;;;3.60;99.90;;;;;;5005181;28;20270;-83
2021/11/14 01:42:41;;;;;;;98.78;52.60;;;3.60;99.90;;;;;;5005934;28;20243;-83
2021/11/14 01:45:09;;;;;;;94.88;49.70;;;3.60;99.90;;;;;;5022904;28;20201;-84
2021/11/14 01:47:36;;;;;;;95.28;50.17;;;3.60;99.90;;;;;;5006393;28;20255;-84
2021/11/14 01:50:07;;;;;;;89.65;50.78;;;3.50;99.90;;;;;;5004957;28;20359;-84
2021/11/14 01:52:35;;;;;;;83.45;48.35;;;3.40;99.90;;;;;;5023716;28;20217;-84
2021/11/14 01:55:03;;;;;;;92.10;53.88;;;3.40;99.90;;;;;;5023125;28;20205;-85
2021/11/14 01:57:31;;;;;;;109.07;53.65;;;3.40;99.90;;;;;;5023583;28;20388;-84
2021/11/14 01:59:58;;;;;;;87.00;48.90;;;3.50;99.90;;;;;;4997869;28;20201;-85
2021/11/14 02:02:26;;;;;;;92.72;53.47;;;3.50;99.90;;;;;;5023265;28;20208;-84
2021/11/14 02:04:53;;;;;;;88.15;50.53;;;3.50;99.90;;;;;;5023858;28;20346;-84
2021/11/14 02:07:20;;;;;;;102.25;55.30;;;3.50;99.90;;;;;;5022390;28;20201;-84
2021/11/14 02:09:48;;;;;;;102.18;55.15;;;3.40;99.90;;;;;;5023456;28;20212;-84
2021/11/14 02:12:15;;;;;;;113.07;59.05;;;3.40;99.90;;;;;;5003745;28;20545;-84
2021/11/14 02:14:43;;;;;;;103.63;54.45;;;3.30;99.90;;;;;;5019389;28;20197;-84
2021/11/14 02:17:11;;;;;;;113.55;56.33;;;3.30;99.90;;;;;;5005984;28;20224;-85
2021/11/14 02:19:39;;;;;;;127.20;55.00;;;3.50;99.90;;;;;;5023423;28;20495;-84
2021/11/14 02:22:06;;;;;;;117.20;56.78;;;3.50;99.90;;;;;;5023463;28;20201;-84
2021/11/14 02:24:34;;;;;;;102.63;57.83;;;3.50;99.90;;;;;;5023380;28;20201;-84
2021/11/14 02:27:01;;;;;;;108.85;61.53;;;3.50;99.90;;;;;;5023005;28;20235;-84
2021/11/14 02:29:29;;;;;;;92.22;57.33;;;3.40;99.90;;;;;;5005290;28;20204;-84
2021/11/14 02:31:58;;;;;;;98.95;53.65;;;3.40;99.90;;;;;;5022910;28;20461;-83
2021/11/14 02:34:25;;;;;;;101.03;54.80;;;3.20;99.90;;;;;;5022528;28;20212;-82
2021/11/14 02:36:53;;;;;;;104.68;55.80;;;3.00;99.90;;;;;;5021393;28;20248;-82
2021/11/14 02:39:20;;;;;;;100.55;51.97;;;2.90;99.90;;;;;;5019416;28;20395;-84
2021/11/14 02:41:47;;;;;;;100.35;52.95;;;2.90;99.90;;;;;;5005024;28;20200;-83
2021/11/14 02:44:15;;;;;;;106.25;53.63;;;2.80;99.90;;;;;;5022459;28;20220;-83
2021/11/14 02:46:43;;;;;;;106.55;54.92;;;2.70;99.90;;;;;;5021984;28;20247;-85
2021/11/14 02:49:10;;;;;;;104.80;55.60;;;2.80;99.90;;;;;;5022164;28;20201;-85
2021/11/14 02:51:40;;;;;;;107.18;56.58;;;2.80;99.90;;;;;;5004684;28;20247;-84
2021/11/14 02:54:08;;;;;;;115.93;57.55;;;2.60;99.90;;;;;;5005785;28;20197;-84
2021/11/14 02:56:36;;;;;;;97.93;56.40;;;2.70;99.90;;;;;;5022184;28;20565;-84
2021/11/14 02:59:04;;;;;;;106.05;56.85;;;2.70;99.90;;;;;;5021857;28;20221;-84
2021/11/14 03:01:38;;;;;;;100.30;53.28;;;2.80;99.90;;;;;;5005494;28;20209;-83
2021/11/14 03:04:06;;;;;;;103.72;57.60;;;2.80;99.90;;;;;;5020302;28;20204;-83
2021/11/14 03:06:33;;;;;;;106.75;57.83;;;2.80;99.90;;;;;;4999473;28;20423;-83
2021/11/14 03:09:01;;;;;;;107.85;58.60;;;2.90;99.90;;;;;;5019361;28;20205;-84
2021/11/14 03:11:28;;;;;;;124.80;65.32;;;2.70;99.90;;;;;;5022112;28;20251;-83
2021/11/14 03:13:55;;;;;;;106.60;57.33;;;2.80;99.90;;;;;;5022002;28;20247;-83
2021/11/14 03:16:26;;;;;;;122.00;57.22;;;2.90;99.90;;;;;;5017863;28;20541;-85
2021/11/14 03:18:54;;;;;;;113.78;57.60;;;2.90;99.90;;;;;;5017857;28;20236;-83
2021/11/14 03:21:23;;;;;;;120.50;60.67;;;2.80;99.90;;;;;;5014586;28;20197;-84
2021/11/14 03:23:50;;;;;;;105.95;59.45;;;2.80;99.90;;;;;;5004518;28;20423;-83
2021/11/14 03:26:17;;;;;;;107.20;57.67;;;2.80;99.90;;;;;;5021423;28;20247;-83
2021/11/14 03:28:45;;;;;;;99.72;58.25;;;2.80;99.90;;;;;;5021317;28;20565;-83
2021/11/14 03:31:13;;;;;;;98.53;54.00;;;2.70;99.90;;;;;;5021168;28;20208;-83
2021/11/14 03:33:41;;;;;;;108.70;55.55;;;2.60;99.90;;;;;;5021478;28;20204;-83
2021/11/14 03:36:16;;;;;;;95.93;52.83;;;2.60;99.90;;;;;;5003783;28;20200;-83
2021/11/14 03:38:59;;;;;;;98.72;53.55;;;2.60;99.90;;;;;;5021048;28;20260;-83
2021/11/14 03:41:36;;;;;;;97.63;55.10;;;2.60;99.90;;;;;;5023441;28;20243;-83
2021/11/14 03:44:05;;;;;;;102.35;55.25;;;2.60;99.90;;;;;;5029809;28;20246;-83
2021/11/14 03:46:33;;;;;;;101.18;54.80;;;2.60;99.90;;;;;;5021915;28;20197;-84
2021/11/14 03:49:00;;;;;;;92.95;56.63;;;2.70;99.90;;;;;;5021174;28;20505;-83
2021/11/14 03:51:28;;;;;;;108.47;57.22;;;2.60;99.90;;;;;;5003309;28;20217;-83
2021/11/14 03:53:57;;;;;;;108.72;60.58;;;2.50;99.90;;;;;;5003485;28;20213;-83
2021/11/14 03:56:28;;;;;;;101.55;57.80;;;2.60;99.90;;;;;;5020702;28;20201;-83
2021/11/14 03:58:55;;;;;;;106.97;59.50;;;2.60;99.90;;;;;;5020352;28;20228;-84
2021/11/14 04:01:25;;;;;;;121.35;60.78;;;2.60;99.90;;;;;;5003772;28;20209;-82
2021/11/14 04:03:53;;;;;;;110.13;61.40;;;2.60;99.90;;;;;;5020808;28;20197;-83
2021/11/14 04:06:22;;;;;;;109.72;58.28;;;2.60;99.90;;;;;;5020817;28;20201;-83
2021/11/14 04:08:52;;;;;;;119.32;60.85;;;2.60;99.90;;;;;;5008052;28;20212;-82
2021/11/14 04:11:20;;;;;;;112.25;57.65;;;2.60;99.90;;;;;;5020939;28;20223;-83
2021/11/14 04:13:47;;;;;;;129.52;62.00;;;2.50;99.90;;;;;;5020625;28;20201;-82
2021/11/14 04:16:15;;;;;;;110.78;61.35;;;2.60;99.90;;;;;;5018576;28;20247;-82
2021/11/14 04:18:42;;;;;;;113.10;58.30;;;2.50;99.90;;;;;;5002564;28;20295;-82
2021/11/14 04:21:10;;;;;;;122.20;62.17;;;2.60;99.90;;;;;;5020212;28;20205;-81
2021/11/14 04:23:38;;;;;;;109.55;58.58;;;2.60;99.90;;;;;;5020134;28;20468;-81
2021/11/14 04:26:07;;;;;;;120.28;60.65;;;2.40;99.90;;;;;;5020271;28;20205;-83
2021/11/14 04:28:35;;;;;;;111.53;59.50;;;2.40;99.90;;;;;;5002250;28;20209;-81
2021/11/14 04:31:04;;;;;;;126.80;59.78;;;2.50;99.90;;;;;;5019941;28;20300;-82
2021/11/14 04:33:32;;;;;;;110.40;64.07;;;2.60;99.90;;;;;;5003430;28;20343;-83
2021/11/14 04:36:00;;;;;;;104.05;59.42;;;2.70;99.90;;;;;;5019612;28;20193;-82
2021/11/14 04:38:27;;;;;;;112.50;63.08;;;2.50;99.90;;;;;;5015280;28;20243;-82
2021/11/14 04:40:55;;;;;;;116.05;59.03;;;2.50;99.90;;;;;;5018541;28;20407;-82
2021/11/14 04:43:22;;;;;;;113.85;58.08;;;2.50;99.90;;;;;;5020564;28;20239;-83
2021/11/14 04:45:51;;;;;;;105.93;58.20;;;2.60;99.90;;;;;;5019655;28;20215;-83
2021/11/14 04:48:20;;;;;;;121.60;59.85;;;2.60;99.90;;;;;;5019617;28;20211;-83
2021/11/14 04:50:48;;;;;;;109.40;60.63;;;2.50;99.90;;;;;;5003260;28;20430;-83
2021/11/14 04:53:16;;;;;;;118.15;59.30;;;2.70;99.90;;;;;;5023206;28;20239;-82
2021/11/14 04:55:43;;;;;;;116.88;63.33;;;2.70;99.90;;;;;;5020951;28;20201;-82
2021/11/14 04:58:13;;;;;;;117.63;61.78;;;2.60;99.90;;;;;;5024265;28;20254;-82
2021/11/14 05:00:47;;;;;;;105.38;61.13;;;2.40;99.90;;;;;;5024454;28;20215;-83
2021/11/14 05:03:16;;;;;;;133.38;61.50;;;2.40;99.90;;;;;;5006261;28;20208;-83
2021/11/14 05:05:44;;;;;;;111.70;60.60;;;2.50;99.90;;;;;;5023986;28;20451;-82
2021/11/14 05:08:11;;;;;;;104.72;57.42;;;2.60;99.90;;;;;;5023494;28;20283;-83
2021/11/14 05:10:42;;;;;;;114.95;59.55;;;2.60;99.90;;;;;;5006879;28;20548;-83
2021/11/14 05:13:12;;;;;;;111.50;58.90;;;2.50;99.90;;;;;;5023942;28;20403;-83
2021/11/14 05:15:39;;;;;;;119.35;63.40;;;2.60;99.90;;;;;;5023892;28;20247;-82
2021/11/14 05:18:07;;;;;;;115.65;63.10;;;2.40;99.90;;;;;;5023890;28;20256;-83
2021/11/14 05:20:35;;;;;;;108.68;65.57;;;2.10;99.90;;;;;;5023912;28;20200;-83
2021/11/14 05:23:04;;;;;;;123.70;68.15;;;2.10;99.90;;;;;;5022233;28;20205;-82
2021/11/14 05:25:32;;;;;;;109.20;67.78;;;2.10;99.90;;;;;;5006251;28;20429;-83
2021/11/14 05:27:59;;;;;;;117.03;67.57;;;2.30;99.90;;;;;;5023420;28;20351;-83
2021/11/14 05:30:26;;;;;;;117.63;67.05;;;2.10;99.90;;;;;;5005955;28;20212;-83
2021/11/14 05:32:54;;;;;;;94.18;58.38;;;2.10;99.90;;;;;;4989894;28;20205;-83
2021/11/14 05:35:21;;;;;;;108.15;57.65;;;2.20;99.90;;;;;;5006182;28;20251;-82
2021/11/14 05:37:49;;;;;;;109.28;57.42;;;2.10;99.90;;;;;;5008011;28;20248;-82
2021/11/14 05:40:16;;;;;;;101.10;61.70;;;2.10;99.90;;;;;;5024076;28;20205;-82
2021/11/14 05:42:43;;;;;;;112.32;62.88;;;2.20;99.90;;;;;;5025042;28;20193;-81
2021/11/14 05:45:10;;;;;;;103.78;59.28;;;2.20;99.90;;;;;;5025291;28;20217;-83
2021/11/14 05:47:38;;;;;;;108.22;62.50;;;2.20;99.90;;;;;;5025049;28;20251;-83
2021/11/14 05:50:08;;;;;;;107.70;64.47;;;2.20;99.90;;;;;;5025461;28;20498;-83
2021/11/14 05:52:35;;;;;;;99.35;59.30;;;2.20;99.90;;;;;;5025036;28;20201;-84
2021/11/14 05:55:05;;;;;;;111.15;60.80;;;2.10;99.90;;;;;;5024670;28;20243;-83
2021/11/14 05:57:44;;;;;;;107.15;60.75;;;2.10;99.90;;;;;;5007723;28;20505;-82
2021/11/14 06:00:18;;;;;;;102.85;64.82;;;2.20;99.90;;;;;;5007392;28;20196;-84
2021/11/14 06:02:49;;;;;;;101.88;63.03;;;2.20;99.90;;;;;;5024579;28;20200;-84
2021/11/14 06:05:17;;;;;;;107.95;65.43;;;2.10;99.90;;;;;;5024523;28;20383;-83
2021/11/14 06:07:46;;;;;;;102.68;60.38;;;2.10;99.90;;;;;;5024935;28;20423;-82
2021/11/14 06:10:14;;;;;;;120.43;63.95;;;2.00;99.90;;;;;;5024960;28;20200;-83
2021/11/14 06:12:43;;;;;;;116.38;65.68;;;2.00;99.90;;;;;;5025008;28;20201;-83
2021/11/14 06:15:14;;;;;;;109.75;62.00;;;2.00;99.90;;;;;;5018820;28;20205;-83
2021/11/14 06:17:42;;;;;;;106.93;61.30;;;1.80;99.90;;;;;;5024660;28;20263;-83
2021/11/14 06:20:10;;;;;;;129.27;70.28;;;1.60;99.90;;;;;;5024262;28;20201;-84
2021/11/14 06:22:38;;;;;;;110.68;65.15;;;1.50;99.90;;;;;;5007430;28;20205;-84
2021/11/14 06:25:06;;;;;;;113.60;64.85;;;1.50;99.90;;;;;;5007560;28;20280;-83
2021/11/14 06:27:34;;;;;;;107.38;65.60;;;1.40;99.90;;;;;;5006341;28;20205;-83
2021/11/14 06:30:04;;;;;;;107.15;67.38;;;1.10;99.90;;;;;;5024245;28;20383;-84
2021/11/14 06:32:31;;;;;;;101.90;66.90;;;1.10;99.90;;;;;;5024281;28;20224;-84
2021/11/14 06:35:02;;;;;;;113.78;64.28;;;1.30;99.90;;;;;;5024103;28;20213;-84
2021/11/14 06:37:29;;;;;;;108.72;63.58;;;1.60;99.90;;;;;;5007119;28;20502;-83
2021/11/14 06:39:57;;;;;;;108.03;63.03;;;1.80;99.90;;;;;;5024101;28;20263;-83
2021/11/14 06:42:24;;;;;;;106.15;64.40;;;1.70;99.90;;;;;;5006799;28;20569;-84
2021/11/14 06:44:51;;;;;;;89.05;54.72;;;1.50;99.90;;;;;;5024382;28;20247;-83
2021/11/14 06:47:18;;;;;;;98.93;58.63;;;1.50;99.90;;;;;;5006831;28;20482;-84
2021/11/14 06:49:47;;;;;;;90.70;58.78;;;1.50;99.90;;;;;;5023843;28;20209;-84
2021/11/14 06:52:15;;;;;;;92.15;58.65;;;1.50;99.90;;;;;;5024076;28;20225;-83
2021/11/14 06:54:43;;;;;;;89.90;56.17;;;1.50;99.90;;;;;;5023663;28;20248;-83
2021/11/14 06:57:12;;;;;;;89.65;53.17;;;1.60;99.90;;;;;;5024554;28;20204;-83
2021/11/14 06:59:40;;;;;;;96.50;55.25;;;1.90;99.90;;;;;;5023913;28;20213;-83
2021/11/14 07:02:11;;;;;;;92.43;52.17;;;2.10;99.90;;;;;;5016628;28;20268;-84
2021/11/14 07:04:40;;;;;;;103.53;54.03;;;2.40;99.90;;;;;;5024334;28;20207;-83
2021/11/14 07:07:08;;;;;;;84.10;50.80;;;2.50;99.90;;;;;;5022349;28;20247;-83
2021/11/14 07:09:36;;;;;;;90.05;56.30;;;2.50;99.90;;;;;;5023698;28;20242;-82
2021/11/14 07:12:04;;;;;;;114.03;58.53;;;2.70;99.90;;;;;;5006392;28;20209;-84
2021/11/14 07:14:31;;;;;;;115.78;52.78;;;2.90;99.90;;;;;;5023754;28;20602;-83
2021/11/14 07:16:58;;;;;;;95.13;49.47;;;2.90;99.90;;;;;;5005709;28;20255;-84
2021/11/14 07:19:26;;;;;;;90.40;54.28;;;3.20;99.90;;;;;;5023693;28;20239;-86
2021/11/14 07:21:53;;;;;;;95.00;53.08;;;3.40;99.90;;;;;;5023671;28;20208;-84
2021/11/14 07:24:21;;;;;;;87.75;50.33;;;3.30;99.90;;;;;;5014760;28;20247;-84
2021/11/14 07:26:48;;;;;;;89.53;50.58;;;3.20;99.90;;;;;;5013048;28;20202;-84
2021/11/14 07:29:16;;;;;;;87.68;49.08;;;3.30;99.90;;;;;;5016546;28;20240;-84
2021/11/14 07:31:43;;;;;;;82.03;48.58;;;3.50;99.90;;;;;;5023451;28;20216;-82
2021/11/14 07:34:10;;;;;;;87.00;48.22;;;3.80;99.90;;;;;;5022410;28;20239;-82
2021/11/14 07:36:38;;;;;;;101.28;52.05;;;4.10;99.90;;;;;;5004537;28;20373;-84
2021/11/14 07:39:08;;;;;;;83.72;44.67;;;4.30;99.90;;;;;;5003507;28;20221;-83
2021/11/14 07:41:35;;;;;;;87.57;42.38;;;4.30;99.90;;;;;;5003438;28;20209;-82
2021/11/14 07:44:04;;;;;;;73.70;39.70;;;4.50;99.90;;;;;;5021192;28;20240;-84
2021/11/14 07:46:32;;;;;;;78.63;42.35;;;4.80;99.90;;;;;;5021293;28;20224;-85
2021/11/14 07:49:00;;;;;;;78.63;41.25;;;4.80;99.90;;;;;;5021248;28;20450;-84
2021/11/14 07:51:27;;;;;;;74.80;43.90;;;4.50;99.90;;;;;;5019902;28;20260;-84
2021/11/14 07:53:55;;;;;;;88.75;46.30;;;4.40;99.90;;;;;;5020477;28;20210;-84
2021/11/14 07:56:22;;;;;;;69.50;39.20;;;4.60;99.90;;;;;;4997739;28;20210;-84
2021/11/14 07:58:49;;;;;;;75.47;43.63;;;4.80;99.90;;;;;;5016672;28;20230;-84
2021/11/14 08:01:17;;;;;;;80.10;45.08;;;4.80;99.90;;;;;;5021177;28;20392;-84
2021/11/14 08:03:45;;;;;;;71.75;42.58;;;4.70;99.90;;;;;;5020077;28;20202;-84
2021/11/14 08:06:13;;;;;;;74.80;42.25;;;4.90;99.90;;;;;;5017199;28;20195;-83
2021/11/14 08:08:41;;;;;;;70.55;45.80;;;5.00;99.90;;;;;;5020885;28;20282;-84
2021/11/14 08:11:09;;;;;;;71.22;42.58;;;4.70;99.90;;;;;;5020961;28;20205;-85
2021/11/14 08:13:37;;;;;;;75.95;47.70;;;4.90;99.90;;;;;;5020685;28;20510;-85
2021/11/14 08:16:05;;;;;;;78.97;46.90;;;5.00;99.90;;;;;;5003876;28;20526;-83
2021/11/14 08:18:33;;;;;;;84.95;46.13;;;5.20;99.90;;;;;;5004032;28;20235;-83
2021/11/14 08:21:00;;;;;;;85.97;47.80;;;5.20;99.90;;;;;;5020780;28;20205;-84
2021/11/14 08:23:28;;;;;;;85.68;44.95;;;5.40;99.90;;;;;;5021550;28;20484;-83
2021/11/14 08:25:57;;;;;;;78.20;47.33;;;5.30;99.90;;;;;;5020992;28;20212;-84
2021/11/14 08:28:25;;;;;;;81.22;46.90;;;5.30;99.90;;;;;;5021246;28;20195;-84
2021/11/14 08:30:52;;;;;;;76.78;46.55;;;5.30;99.90;;;;;;5020926;28;20247;-84
2021/11/14 08:33:36;;;;;;;84.18;45.50;;;5.70;99.90;;;;;;5021659;28;20229;-85
2021/11/14 08:36:04;;;;;;;70.50;44.03;;;6.40;99.90;;;;;;5002310;28;20395;-83
2021/11/14 08:38:32;;;;;;;71.88;42.13;;;6.60;99.90;;;;;;5021703;28;20577;-84
2021/11/14 08:40:59;;;;;;;68.55;40.22;;;7.00;99.90;;;;;;5003712;28;20203;-83
2021/11/14 08:43:26;;;;;;;63.47;38.22;;;7.40;99.90;;;;;;5016150;28;20212;-84
2021/11/14 08:45:53;;;;;;;63.00;38.75;;;7.50;99.90;;;;;;5017150;28;20231;-84
2021/11/14 08:48:24;;;;;;;62.20;40.60;;;7.60;99.90;;;;;;5003126;28;20264;-83
2021/11/14 08:50:53;;;;;;;63.72;41.38;;;7.60;99.90;;;;;;5020614;28;20208;-85
2021/11/14 08:53:21;;;;;;;64.95;41.20;;;7.50;99.90;;;;;;5002353;28;20201;-83
2021/11/14 08:55:52;;;;;;;66.25;38.70;;;7.30;99.90;;;;;;5003577;28;20204;-84
2021/11/14 08:58:31;;;;;;;61.17;36.97;;;7.10;99.90;;;;;;5011367;28;20204;-83
2021/11/14 09:01:00;;;;;;;67.13;41.47;;;6.80;99.90;;;;;;5019826;28;20239;-84
2021/11/14 09:03:27;;;;;;;58.05;39.47;;;6.90;99.90;;;;;;5020399;28;20232;-83
2021/11/14 09:05:55;;;;;;;59.00;38.33;;;6.50;99.90;;;;;;5020870;28;20267;-83
2021/11/14 09:08:22;;;;;;;56.30;37.50;;;6.40;99.90;;;;;;4996863;28;20383;-85
2021/11/14 09:10:50;;;;;;;66.50;40.70;;;6.40;99.90;;;;;;5019637;28;20200;-84
2021/11/14 09:13:18;;;;;;;73.35;41.15;;;6.50;99.90;;;;;;5019592;28;20428;-84
2021/11/14 09:15:46;;;;;;;64.20;37.25;;;6.60;99.90;;;;;;5016068;28;20259;-84
2021/11/14 09:18:17;;;;;;;66.03;36.83;;;6.40;99.90;;;;;;5003050;28;20211;-85
2021/11/14 09:20:45;;;;;;;59.13;39.05;;;6.50;99.90;;;;;;5009158;28;20236;-84
2021/11/14 09:23:13;;;;;;;67.35;41.20;;;6.30;99.90;;;;;;5002768;28;20197;-84
2021/11/14 09:25:41;;;;;;;75.47;42.65;;;6.40;99.90;;;;;;5020098;28;20348;-84
2021/11/14 09:28:10;;;;;;;69.90;40.70;;;6.70;99.90;;;;;;5018736;28;20193;-84
2021/11/14 09:30:42;;;;;;;68.25;39.75;;;6.70;99.90;;;;;;5022259;28;20218;-88
2021/11/14 09:33:11;;;;;;;75.68;41.83;;;6.60;99.90;;;;;;4972961;28;20475;-88
2021/11/14 09:35:38;;;;;;;74.22;41.33;;;6.20;99.90;;;;;;5017935;28;20215;-85
2021/11/14 09:38:07;;;;;;;73.28;41.28;;;5.90;99.90;;;;;;5019999;28;20208;-85
2021/11/14 09:40:35;;;;;;;78.28;42.15;;;5.80;99.90;;;;;;5016814;28;20283;-84
2021/11/14 09:43:03;;;;;;;72.70;40.67;;;5.80;99.90;;;;;;5002716;28;20386;-84
2021/11/14 09:45:33;;;;;;;75.53;45.13;;;5.90;99.90;;;;;;5015240;28;20204;-84
2021/11/14 09:48:03;;;;;;;65.50;40.55;;;5.80;99.90;;;;;;5024348;28;20214;-85
2021/11/14 09:50:34;;;;;;;70.65;44.65;;;6.00;99.90;;;;;;5024547;28;20214;-85
2021/11/14 09:53:02;;;;;;;81.47;43.10;;;6.10;99.90;;;;;;5023935;28;20205;-85
2021/11/14 09:55:35;;;;;;;72.13;41.22;;;5.90;99.90;;;;;;5005454;28;20214;-86
2021/11/14 09:58:05;;;;;;;71.80;43.40;;;5.60;99.90;;;;;;5024391;28;20207;-85
2021/11/14 10:00:33;;;;;;;94.13;46.40;;;5.50;99.90;;;;;;5006391;28;20295;-84
2021/11/14 10:03:00;;;;;;;74.97;45.72;;;5.60;99.90;;;;;;5002800;28;20228;-87
2021/11/14 10:05:28;;;;;;;76.43;42.13;;;5.60;99.90;;;;;;4999671;28;20205;-90
2021/11/14 10:08:03;;;;;;;85.05;46.25;;;5.60;99.90;;;;;;5011031;28;20236;-88
2021/11/14 10:10:33;;;;;;;75.78;47.13;;;5.50;99.90;;;;;;5002690;28;20256;-84
2021/11/14 10:13:17;;;;;;;81.75;44.80;;;5.50;99.90;;;;;;5007330;28;20207;-84
2021/11/14 10:15:46;;;;;;;81.93;42.63;;;5.50;99.90;;;;;;5018034;28;20205;-86
2021/11/14 10:18:16;;;;;;;71.45;40.17;;;5.60;99.90;;;;;;5022768;28;20225;-89
2021/11/14 10:20:43;;;;;;;73.70;41.83;;;5.60;99.90;;;;;;5006290;28;20221;-87
2021/11/14 10:23:17;;;;;;;70.60;41.47;;;5.60;99.90;;;;;;5005874;28;20351;-85
2021/11/14 10:25:46;;;;;;;78.80;43.33;;;5.60;99.90;;;;;;5005858;28;20209;-86
2021/11/14 10:28:15;;;;;;;75.50;39.42;;;5.80;99.90;;;;;;5005402;28;20251;-85
2021/11/14 10:30:46;;;;;;;69.18;38.35;;;5.80;99.90;;;;;;5005104;28;20208;-84
2021/11/14 10:33:16;;;;;;;77.20;43.65;;;6.00;99.90;;;;;;5000672;28;20220;-84
2021/11/14 10:35:45;;;;;;;80.78;45.15;;;6.00;99.90;;;;;;5018921;28;20196;-85
2021/11/14 10:38:16;;;;;;;75.28;41.28;;;6.10;99.90;;;;;;5016832;28;20459;-83
2021/11/14 10:40:47;;;;;;;63.95;35.35;;;6.20;99.90;;;;;;5017052;28;20228;-85
2021/11/14 10:43:17;;;;;;;74.40;38.58;;;6.20;99.90;;;;;;5000978;28;20428;-86
2021/11/14 10:45:45;;;;;;;67.70;39.67;;;6.20;99.90;;;;;;5022211;28;20395;-85
2021/11/14 10:48:15;;;;;;;59.78;37.83;;;6.00;99.90;;;;;;5004802;28;20187;-86
2021/11/14 10:50:47;;;;;;;70.40;37.08;;;6.00;99.90;;;;;;5022202;28;20220;-85
2021/11/14 10:53:18;;;;;;;61.60;38.63;;;5.90;99.90;;;;;;5016001;28;20216;-85
2021/11/14 10:55:48;;;;;;;76.78;42.08;;;5.80;99.90;;;;;;5013849;28;20263;-85
2021/11/14 10:58:17;;;;;;;73.30;39.08;;;5.80;99.90;;;;;;5001359;28;20204;-86
2021/11/14 11:00:48;;;;;;;57.63;37.25;;;5.80;99.90;;;;;;5003929;28;20235;-85
2021/11/14 11:03:16;;;;;;;70.32;38.60;;;5.90;99.90;;;;;;5019732;28;20204;-86
2021/11/14 11:05:45;;;;;;;65.30;39.60;;;5.90;99.90;;;;;;5001771;28;20223;-87
2021/11/14 11:08:23;;;;;;;64.72;35.85;;;5.90;99.90;;;;;;5002818;28;20397;-85
2021/11/14 11:10:57;;;;;;;60.78;36.15;;;6.10;99.90;;;;;;5021731;28;20333;-84
2021/11/14 11:13:45;;;;;;;82.05;39.20;;;6.20;99.90;;;;;;5001698;28;20210;-87
2021/11/14 11:16:21;;;;;;;62.55;37.53;;;6.00;99.90;;;;;;5015737;28;20286;-84
2021/11/14 11:19:15;;;;;;;58.25;35.63;;;6.00;99.90;;;;;;5013704;28;20315;-84
2021/11/14 11:21:49;;;;;;;62.83;36.47;;;6.10;99.90;;;;;;5017223;28;20200;-85
2021/11/14 11:24:21;;;;;;;56.80;35.15;;;6.20;99.90;;;;;;5001878;28;20200;-84
2021/11/14 11:27:07;;;;;;;63.17;35.13;;;6.10;99.90;;;;;;4998315;28;20235;-85
2021/11/14 11:29:37;;;;;;;60.88;35.88;;;6.30;99.90;;;;;;4993323;28;20224;-86
2021/11/14 11:32:08;;;;;;;62.95;32.10;;;6.40;99.90;;;;;;4998623;28;20204;-87
2021/11/14 11:34:42;;;;;;;62.35;36.65;;;6.40;99.90;;;;;;4994037;28;20205;-88
2021/11/14 11:37:10;;;;;;;54.72;33.10;;;6.50;99.90;;;;;;5011947;28;20211;-85
2021/11/14 11:39:39;;;;;;;50.95;31.35;;;6.60;99.90;;;;;;5012150;28;20225;-85
2021/11/14 11:42:07;;;;;;;59.45;33.85;;;6.60;99.90;;;;;;4996928;28;20203;-86
2021/11/14 11:44:55;;;;;;;52.13;32.22;;;6.60;99.90;;;;;;5010905;28;20205;-86
2021/11/14 11:47:25;;;;;;;63.83;35.33;;;6.60;99.90;;;;;;4999792;28;20258;-86
2021/11/14 11:49:52;;;;;;;59.30;35.72;;;6.60;99.90;;;;;;4990044;28;20202;-82
2021/11/14 11:52:20;;;;;;;54.00;32.30;;;6.50;99.90;;;;;;5010709;28;20216;-87
2021/11/14 11:54:49;;;;;;;54.92;32.53;;;6.80;99.90;;;;;;5009157;28;20209;-84
2021/11/14 11:57:19;;;;;;;57.28;31.58;;;7.00;99.90;;;;;;5009692;28;20246;-85
2021/11/14 12:00:00;;;;;;;47.90;29.05;;;6.90;99.90;;;;;;5009300;28;20268;-84
2021/11/14 12:02:30;;;;;;;52.63;31.88;;;7.00;99.90;;;;;;5017066;28;20368;-86
2021/11/14 12:05:08;;;;;;;52.95;32.38;;;7.10;99.90;;;;;;5024852;28;20443;-88
2021/11/14 12:07:43;;;;;;;58.35;34.25;;;7.10;99.90;;;;;;5018930;28;20205;-86
2021/11/14 12:10:28;;;;;;;50.38;34.22;;;7.30;99.90;;;;;;4996684;28;20215;-85
2021/11/14 12:13:05;;;;;;;59.50;31.85;;;7.10;99.90;;;;;;5017886;28;20207;-84
2021/11/14 12:15:38;;;;;;;59.45;34.25;;;7.10;99.90;;;;;;4998746;28;20362;-86
2021/11/14 12:18:12;;;;;;;51.90;32.00;;;7.10;99.90;;;;;;5016616;28;20204;-85
2021/11/14 12:20:51;;;;;;;49.53;31.80;;;7.00;99.90;;;;;;4996315;28;20505;-85
2021/11/14 12:23:30;;;;;;;50.95;31.15;;;7.10;99.90;;;;;;5001604;28;20201;-84
2021/11/14 12:26:04;;;;;;;58.63;35.42;;;7.30;99.90;;;;;;5013108;28;20197;-85
2021/11/14 12:28:33;;;;;;;55.10;32.33;;;7.20;99.90;;;;;;5007511;28;20201;-84
2021/11/14 12:31:12;;;;;;;60.85;34.78;;;7.20;99.90;;;;;;5017034;28;20209;-84
2021/11/14 12:33:47;;;;;;;60.35;35.28;;;7.40;99.90;;;;;;5011777;28;20220;-83
2021/11/14 12:36:39;;;;;;;63.35;35.10;;;7.30;99.90;;;;;;5021182;28;20259;-85
2021/11/14 12:39:06;;;;;;;51.03;33.05;;;7.40;99.90;;;;;;5008247;28;20215;-83
2021/11/14 12:41:36;;;;;;;58.65;32.85;;;7.30;99.90;;;;;;5015676;28;20240;-84
2021/11/14 12:44:04;;;;;;;68.13;37.22;;;7.40;99.90;;;;;;5013191;28;20228;-85